createdAt,value
2023-03-05T00:01:35.337Z,32.67
2023-03-05T00:04:05.902Z,33.28
2023-03-05T00:06:33.853Z,31.95
2023-03-05T00:09:01.461Z,33.50
2023-03-05T00:11:30.705Z,33.45
2023-03-05T00:14:00.675Z,33.60
2023-03-05T00:16:29.389Z,33.40
2023-03-05T00:18:59.024Z,33.65
2023-03-05T00:21:32.034Z,33.10
2023-03-05T00:24:01.607Z,34.35
2023-03-05T00:26:30.885Z,34.53
2023-03-05T00:29:00.123Z,37.92
2023-03-05T00:31:31.829Z,36.20
2023-03-05T00:34:12.776Z,33.30
2023-03-05T00:41:41.486Z,32.72
2023-03-05T00:44:08.652Z,35.08
2023-03-05T00:46:36.742Z,32.50
2023-03-05T00:49:04.216Z,30.48
2023-03-05T00:51:31.548Z,33.80
2023-03-05T00:53:58.730Z,31.92
2023-03-05T00:56:25.993Z,32.08
2023-03-05T00:58:53.371Z,32.88
2023-03-05T01:01:20.726Z,32.58
2023-03-05T01:03:48.055Z,35.50
2023-03-05T01:06:17.090Z,32.08
2023-03-05T01:08:45.749Z,32.22
2023-03-05T01:11:14.441Z,34.60
2023-03-05T01:13:41.852Z,32.42
2023-03-05T01:16:19.203Z,32.13
2023-03-05T01:18:49.364Z,33.97
2023-03-05T01:21:16.657Z,33.03
2023-03-05T01:23:44.961Z,33.05
2023-03-05T01:26:12.150Z,32.85
2023-03-05T01:29:04.906Z,33.72
2023-03-05T01:31:32.381Z,33.05
2023-03-05T01:34:00.711Z,31.65
2023-03-05T01:36:29.158Z,33.47
2023-03-05T01:39:12.780Z,33.28
2023-03-05T01:41:47.111Z,32.72
2023-03-05T01:44:30.070Z,30.63
2023-03-05T01:46:58.032Z,30.05
2023-03-05T01:49:33.921Z,29.02
2023-03-05T01:52:18.252Z,30.23
2023-03-05T01:55:16.504Z,29.13
2023-03-05T01:57:54.313Z,29.63
2023-03-05T02:00:48.844Z,27.30
2023-03-05T02:03:17.329Z,30.58
2023-03-05T02:05:47.937Z,28.65
2023-03-05T02:08:22.568Z,29.45
2023-03-05T02:11:11.677Z,30.27
2023-03-05T02:13:40.809Z,27.45
2023-03-05T02:16:08.536Z,29.25
2023-03-05T02:18:38.928Z,29.80
2023-03-05T02:21:11.157Z,28.00
2023-03-05T02:23:40.185Z,30.15
2023-03-05T02:26:10.867Z,30.50
2023-03-05T02:28:54.453Z,30.77
2023-03-05T02:31:25.258Z,28.35
2023-03-05T02:33:55.964Z,30.45
2023-03-05T02:36:24.614Z,30.33
2023-03-05T02:38:53.582Z,30.58
2023-03-05T02:41:21.272Z,29.67
2023-03-05T02:43:49.005Z,31.27
2023-03-05T02:46:16.514Z,30.10
2023-03-05T02:48:44.732Z,29.33
2023-03-05T02:51:14.119Z,30.55
2023-03-05T02:53:43.601Z,30.95
2023-03-05T02:56:11.028Z,30.83
2023-03-05T02:58:38.524Z,30.98
2023-03-05T03:01:05.873Z,30.42
2023-03-05T03:03:33.206Z,30.15
2023-03-05T03:06:00.456Z,30.52
2023-03-05T03:08:28.189Z,30.70
2023-03-05T03:10:56.483Z,28.38
2023-03-05T03:13:25.283Z,30.25
2023-03-05T03:16:14.001Z,30.90
2023-03-05T03:18:42.133Z,32.30
2023-03-05T03:21:09.327Z,28.95
2023-03-05T03:23:36.489Z,33.67
2023-03-05T03:26:03.739Z,30.80
2023-03-05T03:28:30.977Z,31.63
2023-03-05T03:30:58.145Z,32.50
2023-03-05T03:33:25.359Z,29.45
2023-03-05T03:35:52.576Z,30.92
2023-03-05T03:38:19.807Z,30.40
2023-03-05T03:40:46.937Z,31.35
2023-03-05T03:43:14.106Z,30.20
2023-03-05T03:45:43.704Z,28.88
2023-03-05T03:48:11.582Z,32.20
2023-03-05T03:50:44.043Z,31.15
2023-03-05T03:53:14.224Z,30.50
2023-03-05T03:55:42.997Z,30.92
2023-03-05T04:00:41.054Z,29.85
2023-03-05T04:03:09.143Z,30.15
2023-03-05T04:05:36.332Z,32.20
2023-03-05T04:08:03.816Z,32.30
2023-03-05T04:10:30.976Z,31.10
2023-03-05T04:12:58.362Z,31.98
2023-03-05T04:15:25.597Z,28.08
2023-03-05T04:17:52.893Z,27.30
2023-03-05T04:20:20.267Z,29.02
2023-03-05T04:22:47.473Z,30.88
2023-03-05T04:25:14.910Z,32.70
2023-03-05T04:27:42.132Z,30.65
2023-03-05T04:30:17.144Z,31.90
2023-03-05T04:32:44.286Z,31.35
2023-03-05T04:35:11.518Z,31.67
2023-03-05T04:37:38.848Z,30.08
2023-03-05T04:40:09.515Z,30.52
2023-03-05T04:42:37.166Z,30.25
2023-03-05T04:45:07.945Z,32.50
2023-03-05T04:47:35.420Z,32.75
2023-03-05T04:50:04.698Z,30.85
2023-03-05T04:52:32.257Z,30.85
2023-03-05T04:54:59.527Z,31.50
2023-03-05T04:57:26.910Z,29.85
2023-03-05T04:59:54.249Z,31.80
2023-03-05T05:02:21.409Z,32.33
2023-03-05T05:04:48.706Z,31.92
2023-03-05T05:07:16.487Z,28.98
2023-03-05T05:09:43.989Z,29.27
2023-03-05T05:12:11.189Z,28.42
2023-03-05T05:14:38.856Z,29.05
2023-03-05T05:17:06.201Z,31.08
2023-03-05T05:19:35.741Z,29.67
2023-03-05T05:22:03.356Z,31.27
2023-03-05T05:24:30.602Z,29.27
2023-03-05T05:26:58.211Z,29.03
2023-03-05T05:29:26.110Z,30.65
2023-03-05T05:31:54.152Z,30.95
2023-03-05T05:34:21.470Z,31.55
2023-03-05T05:36:49.035Z,31.23
2023-03-05T05:39:16.305Z,29.30
2023-03-05T05:41:43.734Z,29.67
2023-03-05T05:44:11.005Z,29.95
2023-03-05T05:46:38.276Z,29.77
2023-03-05T05:49:05.708Z,29.40
2023-03-05T05:51:32.989Z,28.98
2023-03-05T05:54:00.983Z,28.23
2023-03-05T05:56:28.800Z,33.45
2023-03-05T05:58:56.263Z,32.50
2023-03-05T06:01:32.270Z,30.70
2023-03-05T06:03:59.901Z,29.88
2023-03-05T06:06:29.164Z,30.60
2023-03-05T06:08:57.236Z,29.92
2023-03-05T06:11:24.493Z,30.92
2023-03-05T06:13:52.022Z,30.38
2023-03-05T06:16:26.142Z,27.83
2023-03-05T06:18:56.487Z,32.10
2023-03-05T06:21:30.336Z,31.60
2023-03-05T06:24:07.917Z,31.17
2023-03-05T06:26:35.364Z,29.95
2023-03-05T06:29:04.048Z,29.00
2023-03-05T06:34:01.652Z,28.98
2023-03-05T06:36:30.463Z,30.95
2023-03-05T06:38:58.748Z,31.15
2023-03-05T06:41:30.778Z,30.55
2023-03-05T06:44:02.439Z,29.55
2023-03-05T06:46:34.062Z,30.02
2023-03-05T06:49:03.932Z,30.80
2023-03-05T06:51:39.792Z,30.58
2023-03-05T06:54:16.716Z,33.20
2023-03-05T06:56:47.203Z,29.63
2023-03-05T06:59:17.531Z,31.73
2023-03-05T07:01:45.656Z,31.50
2023-03-05T07:04:14.688Z,30.80
2023-03-05T07:06:42.960Z,29.05
2023-03-05T07:09:16.134Z,30.60
2023-03-05T07:11:43.733Z,28.75
2023-03-05T07:14:11.607Z,31.23
2023-03-05T07:16:39.002Z,31.33
2023-03-05T07:19:07.990Z,27.98
2023-03-05T07:21:39.549Z,29.75
2023-03-05T07:24:08.938Z,29.35
2023-03-05T07:26:36.313Z,28.60
2023-03-05T07:29:03.936Z,30.33
2023-03-05T07:31:31.954Z,28.90
2023-03-05T07:34:02.642Z,29.60
2023-03-05T07:36:30.889Z,28.10
2023-03-05T07:38:58.225Z,29.77
2023-03-05T07:41:25.924Z,29.70
2023-03-05T07:43:55.008Z,31.48
2023-03-05T07:46:32.162Z,30.08
2023-03-05T07:49:00.421Z,30.02
2023-03-05T07:51:28.659Z,29.92
2023-03-05T07:53:58.798Z,30.27
2023-03-05T07:56:35.358Z,29.25
2023-03-05T07:59:07.981Z,27.45
2023-03-05T08:01:36.557Z,28.67
2023-03-05T08:06:33.244Z,27.17
2023-03-05T08:09:00.689Z,28.77
2023-03-05T08:11:28.750Z,31.73
2023-03-05T08:13:59.264Z,29.00
2023-03-05T08:16:27.019Z,30.17
2023-03-05T08:18:58.786Z,27.73
2023-03-05T08:21:30.610Z,28.45
2023-03-05T08:23:59.185Z,25.45
2023-03-05T08:26:31.471Z,27.58
2023-03-05T08:28:59.788Z,27.35
2023-03-05T08:31:30.226Z,29.52
2023-03-05T08:34:02.958Z,28.10
2023-03-05T08:36:33.873Z,30.83
2023-03-05T08:39:02.659Z,29.20
2023-03-05T08:41:31.362Z,29.85
2023-03-05T08:43:59.646Z,32.63
2023-03-05T08:46:27.326Z,29.60
2023-03-05T08:48:54.737Z,29.70
2023-03-05T08:51:25.951Z,29.58
2023-03-05T08:54:03.312Z,27.20
2023-03-05T08:56:31.495Z,30.08
2023-03-05T08:58:59.084Z,28.60
2023-03-05T09:01:28.109Z,30.20
2023-03-05T09:03:57.365Z,29.02
2023-03-05T09:06:26.324Z,30.65
2023-03-05T09:08:54.621Z,32.85
2023-03-05T09:11:23.416Z,29.58
2023-03-05T09:16:23.153Z,31.60
2023-03-05T09:18:50.679Z,28.95
2023-03-05T09:21:19.232Z,31.58
2023-03-05T09:23:47.431Z,29.25
2023-03-05T09:26:19.534Z,27.33
2023-03-05T09:28:48.719Z,34.55
2023-03-05T09:31:17.119Z,34.85
2023-03-05T09:36:29.827Z,29.70
2023-03-05T09:38:58.121Z,28.90
2023-03-05T09:42:55.611Z,29.80
2023-03-05T09:46:11.395Z,32.30
2023-03-05T09:49:01.657Z,27.15
2023-03-05T09:51:40.466Z,30.95
2023-03-05T09:54:24.055Z,30.15
2023-03-05T09:57:03.129Z,32.17
2023-03-05T10:00:28.459Z,26.40
2023-03-05T10:03:01.555Z,30.80
2023-03-05T10:05:45.903Z,32.03
2023-03-05T10:08:18.646Z,27.65
2023-03-05T10:14:04.167Z,33.20
2023-03-05T10:17:05.294Z,33.10
2023-03-05T10:20:07.111Z,31.80
2023-03-05T10:23:29.814Z,33.88
2023-03-05T10:26:51.089Z,22.17
2023-03-05T10:29:58.043Z,32.20
2023-03-05T10:32:43.919Z,28.45
2023-03-05T10:35:45.762Z,30.05
2023-03-05T10:39:06.405Z,31.70
2023-03-05T10:41:56.496Z,32.78
2023-03-05T10:44:57.489Z,31.67
2023-03-05T10:47:59.047Z,28.73
2023-03-05T10:50:46.122Z,25.45
2023-03-05T10:53:38.621Z,30.30
2023-03-05T10:56:07.477Z,29.95
2023-03-05T10:58:38.695Z,33.95
2023-03-05T11:01:32.210Z,32.97
2023-03-05T11:04:29.475Z,23.10
2023-03-05T11:07:02.190Z,26.65
2023-03-05T11:09:57.676Z,28.35
2023-03-05T11:12:33.679Z,28.65
2023-03-05T11:15:14.129Z,27.58
2023-03-05T11:18:21.441Z,25.88
2023-03-05T11:20:49.485Z,29.20
2023-03-05T11:23:25.358Z,25.45
2023-03-05T11:26:03.826Z,27.60
2023-03-05T11:28:53.811Z,27.02
2023-03-05T11:31:33.640Z,28.17
2023-03-05T11:34:23.710Z,24.35
2023-03-05T11:36:53.878Z,23.23
2023-03-05T11:39:25.118Z,24.38
2023-03-05T11:41:59.752Z,26.48
2023-03-05T11:44:52.176Z,24.73
2023-03-05T11:47:55.548Z,23.25
2023-03-05T11:50:29.943Z,24.10
2023-03-05T11:56:11.959Z,22.13
2023-03-05T11:59:02.152Z,21.13
2023-03-05T12:01:36.377Z,21.77
2023-03-05T12:04:08.502Z,20.90
2023-03-05T12:07:07.361Z,20.92
2023-03-05T12:09:52.795Z,20.20
2023-03-05T12:12:56.225Z,18.35
2023-03-05T12:15:45.104Z,19.52
2023-03-05T12:18:45.281Z,21.67
2023-03-05T12:21:26.609Z,20.88
2023-03-05T12:24:01.667Z,18.38
2023-03-05T12:26:54.214Z,18.15
2023-03-05T12:29:54.397Z,19.10
2023-03-05T12:32:31.459Z,18.25
2023-03-05T12:35:29.413Z,19.58
2023-03-05T12:38:01.802Z,18.67
2023-03-05T12:40:34.956Z,17.83
2023-03-05T12:43:35.013Z,18.48
2023-03-05T12:46:32.811Z,17.85
2023-03-05T12:49:00.168Z,18.52
2023-03-05T12:51:39.685Z,19.08
2023-03-05T12:54:31.237Z,17.17
2023-03-05T12:57:26.358Z,16.52
2023-03-05T13:00:14.747Z,15.40
2023-03-05T13:02:45.881Z,14.50
2023-03-05T13:05:34.364Z,18.55
2023-03-05T13:08:31.646Z,18.88
2023-03-05T13:11:21.401Z,18.02
2023-03-05T13:13:50.305Z,19.75
2023-03-05T13:16:36.921Z,17.48
2023-03-05T13:21:35.280Z,18.17
2023-03-05T13:24:04.026Z,19.70
2023-03-05T13:26:41.446Z,15.40
2023-03-05T13:29:30.597Z,18.60
2023-03-05T13:32:03.223Z,18.73
2023-03-05T13:34:46.746Z,18.90
2023-03-05T13:37:22.256Z,18.63
2023-03-05T13:40:00.171Z,16.77
2023-03-05T13:42:34.709Z,18.40
2023-03-05T13:45:21.719Z,17.98
2023-03-05T13:48:03.702Z,18.83
2023-03-05T13:50:39.414Z,18.45
2023-03-05T13:53:28.171Z,18.52
2023-03-05T13:56:01.181Z,18.63
2023-03-05T13:58:56.082Z,17.05
2023-03-05T14:01:44.559Z,17.98
2023-03-05T14:04:14.524Z,16.60
2023-03-05T14:06:58.779Z,18.65
2023-03-05T14:09:43.049Z,18.95
2023-03-05T14:12:40.711Z,15.23
2023-03-05T14:15:37.692Z,17.90
2023-03-05T14:18:23.194Z,16.50
2023-03-05T14:21:09.551Z,15.77
2023-03-05T14:23:44.553Z,15.95
2023-03-05T14:26:29.348Z,14.45
2023-03-05T14:29:14.670Z,13.90
2023-03-05T14:32:08.034Z,13.38
2023-03-05T14:34:42.807Z,15.45
2023-03-05T14:37:26.660Z,15.80
2023-03-05T14:40:05.309Z,15.95
2023-03-05T14:42:38.983Z,14.93
2023-03-05T14:45:27.801Z,15.20
2023-03-05T14:48:00.225Z,12.85
2023-03-05T14:50:33.927Z,14.57
2023-03-05T14:53:10.444Z,15.02
2023-03-05T14:55:38.356Z,13.93
2023-03-05T14:58:25.909Z,15.00
2023-03-05T15:00:55.248Z,13.57
2023-03-05T15:03:23.928Z,12.23
2023-03-05T15:05:58.153Z,13.13
2023-03-05T15:08:32.198Z,13.35
2023-03-05T15:11:00.399Z,12.38
2023-03-05T15:13:27.679Z,13.30
2023-03-05T15:15:55.539Z,15.68
2023-03-05T15:18:23.714Z,14.15
2023-03-05T15:20:52.918Z,11.95
2023-03-05T15:23:20.610Z,13.07
2023-03-05T15:25:48.216Z,14.88
2023-03-05T15:28:16.016Z,14.88
2023-03-05T15:30:46.930Z,13.57
2023-03-05T15:33:17.437Z,14.50
2023-03-05T15:35:45.148Z,13.70
2023-03-05T15:38:12.459Z,13.20
2023-03-05T15:40:39.610Z,16.05
2023-03-05T15:43:06.794Z,14.52
2023-03-05T15:45:33.954Z,14.82
2023-03-05T15:48:01.424Z,14.77
2023-03-05T15:50:28.663Z,14.73
2023-03-05T15:52:55.839Z,16.02
2023-03-05T15:55:23.235Z,14.82
2023-03-05T15:57:53.954Z,15.55
2023-03-05T16:00:29.716Z,15.85
2023-03-05T16:02:57.036Z,15.75
2023-03-05T16:05:24.282Z,15.35
2023-03-05T16:07:53.368Z,13.73
2023-03-05T16:10:26.047Z,15.48
2023-03-05T16:13:06.168Z,14.43
2023-03-05T16:15:35.119Z,13.75
2023-03-05T16:18:08.422Z,15.43
2023-03-05T16:20:36.296Z,12.77
2023-03-05T16:23:05.700Z,15.90
2023-03-05T16:25:32.966Z,15.18
2023-03-05T16:28:00.145Z,13.65
2023-03-05T16:30:27.471Z,14.80
2023-03-05T16:32:54.631Z,14.15
2023-03-05T16:35:22.225Z,13.80
2023-03-05T16:37:49.696Z,14.88
2023-03-05T16:40:17.351Z,13.70
2023-03-05T16:42:44.604Z,13.93
2023-03-05T16:45:12.863Z,15.00
2023-03-05T16:47:41.059Z,16.02
2023-03-05T16:50:11.256Z,14.38
2023-03-05T16:52:38.502Z,14.10
2023-03-05T16:55:08.694Z,15.00
2023-03-05T16:57:40.019Z,15.23
2023-03-05T17:00:11.575Z,16.30
2023-03-05T17:02:39.128Z,13.43
2023-03-05T17:05:06.821Z,15.48
2023-03-05T17:07:33.975Z,15.85
2023-03-05T17:10:01.341Z,14.48
2023-03-05T17:12:28.680Z,17.05
2023-03-05T17:14:56.023Z,15.90
2023-03-05T17:17:23.204Z,14.63
2023-03-05T17:19:50.356Z,12.82
2023-03-05T17:22:17.744Z,15.10
2023-03-05T17:24:47.160Z,13.57
2023-03-05T17:27:14.525Z,15.70
2023-03-05T17:29:41.671Z,14.38
2023-03-05T17:32:08.914Z,13.77
2023-03-05T17:34:37.105Z,14.60
2023-03-05T17:37:06.058Z,15.90
2023-03-05T17:39:34.132Z,15.35
2023-03-05T17:42:01.768Z,15.27
2023-03-05T17:44:29.106Z,16.42
2023-03-05T17:46:56.257Z,16.10
2023-03-05T17:49:23.436Z,15.10
2023-03-05T17:51:50.682Z,14.30
2023-03-05T17:54:17.904Z,15.48
2023-03-05T17:56:45.072Z,16.70
2023-03-05T17:59:12.230Z,15.18
2023-03-05T18:01:39.681Z,15.45
2023-03-05T18:04:07.108Z,14.45
2023-03-05T18:06:34.298Z,17.95
2023-03-05T18:09:01.552Z,16.52
2023-03-05T18:11:30.599Z,14.18
2023-03-05T18:13:57.955Z,16.70
2023-03-05T18:16:25.361Z,17.92
2023-03-05T18:18:53.216Z,18.48
2023-03-05T18:21:23.300Z,17.33
2023-03-05T18:23:51.710Z,17.73
2023-03-05T18:28:46.265Z,16.40
2023-03-05T18:31:13.662Z,16.17
2023-03-05T18:33:42.212Z,18.73
2023-03-05T18:36:12.009Z,16.08
2023-03-05T18:38:39.541Z,12.90
2023-03-05T18:41:08.022Z,13.52
2023-03-05T18:43:36.160Z,11.88
2023-03-05T18:46:05.010Z,12.50
2023-03-05T18:48:32.362Z,12.23
2023-03-05T18:51:01.906Z,9.18
2023-03-05T18:53:29.696Z,6.55
2023-03-05T18:55:56.867Z,7.72
2023-03-05T18:58:25.930Z,6.60
2023-03-05T19:00:53.373Z,6.35
2023-03-05T19:03:22.901Z,5.88
2023-03-05T19:05:51.205Z,5.90
2023-03-05T19:08:19.490Z,6.63
2023-03-05T19:10:47.656Z,6.60
2023-03-05T19:13:48.876Z,7.03
2023-03-05T19:16:30.265Z,6.90
2023-03-05T19:19:25.358Z,6.60
2023-03-05T19:21:59.857Z,6.65
2023-03-05T19:27:00.976Z,10.77
2023-03-05T19:29:32.779Z,9.20
2023-03-05T19:32:00.023Z,9.07
2023-03-05T19:34:27.276Z,8.82
2023-03-05T19:36:54.453Z,8.73
2023-03-05T19:39:21.787Z,6.97
2023-03-05T19:41:49.185Z,7.70
2023-03-05T19:44:17.432Z,7.43
2023-03-05T19:46:44.871Z,7.72
2023-03-05T19:49:12.054Z,8.35
2023-03-05T19:51:43.847Z,7.43
2023-03-05T19:54:13.333Z,9.40
2023-03-05T19:56:42.979Z,9.20
2023-03-05T19:59:11.038Z,11.88
2023-03-05T20:01:38.459Z,8.73
2023-03-05T20:04:06.174Z,8.73
2023-03-05T20:06:34.548Z,9.45
2023-03-05T20:09:01.804Z,9.30
2023-03-05T20:11:29.278Z,9.52
2023-03-05T20:13:57.019Z,11.23
2023-03-05T20:16:29.921Z,9.70
2023-03-05T20:18:59.615Z,10.40
2023-03-05T20:21:39.820Z,11.18
2023-03-05T20:24:15.498Z,10.05
2023-03-05T20:26:45.833Z,9.90
2023-03-05T20:29:17.611Z,10.18
2023-03-05T20:31:47.480Z,7.88
2023-03-05T20:34:18.856Z,9.80
2023-03-05T20:36:46.589Z,9.13
2023-03-05T20:39:13.788Z,9.50
2023-03-05T20:41:41.452Z,9.18
2023-03-05T20:44:11.257Z,9.93
2023-03-05T20:47:45.857Z,10.38
2023-03-05T20:50:14.969Z,9.40
2023-03-05T20:52:42.202Z,9.68
2023-03-05T20:55:11.285Z,10.52
2023-03-05T20:57:39.172Z,9.57
2023-03-05T21:00:08.206Z,10.30
2023-03-05T21:02:35.500Z,9.35
2023-03-05T21:05:02.727Z,9.48
2023-03-05T21:07:30.744Z,10.05
2023-03-05T21:10:06.240Z,11.80
2023-03-05T21:12:33.768Z,11.23
2023-03-05T21:15:00.922Z,13.93
2023-03-05T21:17:33.077Z,13.07
2023-03-05T21:20:00.935Z,11.88
2023-03-05T21:22:28.072Z,11.43
2023-03-05T21:25:14.750Z,11.15
2023-03-05T21:27:44.341Z,10.15
2023-03-05T21:30:12.392Z,12.18
2023-03-05T21:32:48.020Z,10.35
2023-03-05T21:35:21.567Z,10.52
2023-03-05T21:37:49.096Z,10.10
2023-03-05T21:40:25.009Z,10.48
2023-03-05T21:42:52.941Z,12.68
2023-03-05T21:45:26.998Z,11.63
2023-03-05T21:47:56.128Z,12.43
2023-03-05T21:50:25.754Z,12.98
2023-03-05T21:52:53.930Z,13.27
2023-03-05T21:56:30.912Z,13.30
2023-03-05T21:58:58.195Z,14.68
2023-03-05T22:01:25.454Z,13.68
2023-03-05T22:03:53.841Z,12.32
2023-03-05T22:06:21.988Z,11.70
2023-03-05T22:08:51.844Z,11.57
2023-03-05T22:11:22.885Z,12.27
2023-03-05T22:13:53.239Z,12.45
2023-03-05T22:16:26.842Z,13.82
2023-03-05T22:18:54.847Z,12.98
2023-03-05T22:21:27.315Z,10.57
2023-03-05T22:23:58.699Z,12.02
2023-03-05T22:26:37.381Z,12.55
2023-03-05T22:29:06.166Z,13.32
2023-03-05T22:31:33.360Z,12.98
2023-03-05T22:34:00.548Z,12.63
2023-03-05T22:36:27.739Z,12.27
2023-03-05T22:38:55.009Z,12.10
2023-03-05T22:41:22.460Z,11.32
2023-03-05T22:43:51.101Z,11.90
2023-03-05T22:46:25.796Z,11.95
2023-03-05T22:51:21.160Z,10.77
2023-03-05T22:53:48.537Z,13.27
2023-03-05T22:56:19.406Z,12.25
2023-03-05T22:58:47.236Z,11.40
2023-03-05T23:01:25.670Z,13.23
2023-03-05T23:04:49.355Z,13.20
2023-03-05T23:10:26.954Z,11.85
2023-03-05T23:12:57.135Z,12.15
2023-03-05T23:15:34.369Z,12.93
2023-03-05T23:18:02.279Z,12.77
2023-03-05T23:20:36.664Z,12.52
2023-03-05T23:23:04.780Z,13.32
2023-03-05T23:25:34.978Z,13.05
2023-03-05T23:28:02.953Z,12.07
2023-03-05T23:30:38.754Z,11.93
2023-03-05T23:33:23.010Z,12.10
2023-03-05T23:35:58.416Z,11.70
2023-03-05T23:38:29.246Z,11.63
2023-03-05T23:41:01.132Z,11.50
2023-03-05T23:43:29.511Z,11.95
2023-03-05T23:45:57.124Z,11.75
2023-03-05T23:48:27.656Z,11.60
2023-03-05T23:50:55.479Z,12.00
2023-03-05T23:53:27.890Z,11.32
2023-03-05T23:55:56.588Z,11.55
2023-03-05T23:58:24.592Z,11.73
